createdAt,value
2022-11-15T00:00:52.829Z,7.22
2022-11-15T00:03:22.113Z,7.10
2022-11-15T00:05:48.729Z,6.32
2022-11-15T00:08:15.744Z,6.10
2022-11-15T00:10:42.934Z,7.65
2022-11-15T00:13:11.861Z,5.72
2022-11-15T00:15:42.532Z,6.38
2022-11-15T00:18:16.050Z,6.38
2022-11-15T00:20:42.746Z,5.85
2022-11-15T00:23:09.486Z,6.15
2022-11-15T00:25:36.441Z,5.70
2022-11-15T00:28:03.216Z,5.88
2022-11-15T00:30:29.944Z,6.38
2022-11-15T00:32:56.747Z,5.90
2022-11-15T00:35:23.729Z,5.68
2022-11-15T00:37:50.317Z,5.72
2022-11-15T00:40:17.066Z,5.68
2022-11-15T00:42:43.655Z,5.80
2022-11-15T00:45:10.889Z,5.30
2022-11-15T00:47:37.489Z,5.93
2022-11-15T00:50:05.264Z,5.35
2022-11-15T00:52:31.905Z,6.45
2022-11-15T00:54:58.506Z,5.00
2022-11-15T00:57:25.105Z,5.07
2022-11-15T00:59:51.718Z,5.15
2022-11-15T01:02:18.296Z,5.07
2022-11-15T01:04:44.949Z,4.82
2022-11-15T01:07:11.639Z,5.97
2022-11-15T01:09:38.257Z,4.70
2022-11-15T01:12:05.251Z,5.32
2022-11-15T01:14:31.857Z,5.13
2022-11-15T01:16:58.441Z,5.47
2022-11-15T01:19:25.069Z,5.28
2022-11-15T01:21:52.057Z,4.93
2022-11-15T01:24:18.659Z,4.28
2022-11-15T01:26:45.380Z,4.28
2022-11-15T01:29:12.018Z,5.63
2022-11-15T01:31:39.082Z,4.60
2022-11-15T01:34:05.681Z,5.07
2022-11-15T01:36:32.368Z,5.07
2022-11-15T01:38:59.703Z,4.80
2022-11-15T01:41:35.058Z,4.88
2022-11-15T01:44:29.385Z,5.15
2022-11-15T01:46:56.724Z,4.88
2022-11-15T01:49:24.772Z,4.78
2022-11-15T01:51:52.438Z,4.45
2022-11-15T01:54:22.215Z,4.72
2022-11-15T01:57:00.500Z,4.68
2022-11-15T01:59:27.440Z,5.53
2022-11-15T02:01:54.428Z,5.10
2022-11-15T02:04:29.827Z,4.93
2022-11-15T02:06:56.769Z,4.40
2022-11-15T02:09:23.593Z,5.07
2022-11-15T02:11:51.626Z,4.45
2022-11-15T02:14:21.041Z,4.38
2022-11-15T02:16:53.553Z,4.45
2022-11-15T02:19:32.254Z,3.93
2022-11-15T02:22:20.733Z,4.03
2022-11-15T02:25:18.568Z,4.45
2022-11-15T02:27:50.987Z,3.42
2022-11-15T02:30:38.876Z,4.13
2022-11-15T02:33:26.165Z,3.97
2022-11-15T02:35:59.635Z,3.92
2022-11-15T02:38:45.163Z,4.50
2022-11-15T02:41:17.833Z,3.60
2022-11-15T02:43:57.884Z,3.97
2022-11-15T02:47:17.439Z,3.70
2022-11-15T02:49:55.601Z,3.83
2022-11-15T02:52:24.304Z,3.42
2022-11-15T02:54:59.380Z,3.92
2022-11-15T02:58:19.745Z,3.28
2022-11-15T03:00:59.241Z,3.70
2022-11-15T03:03:32.096Z,3.10
2022-11-15T03:06:25.481Z,3.50
2022-11-15T03:09:06.610Z,3.28
2022-11-15T03:11:42.889Z,3.58
2022-11-15T03:14:12.321Z,3.45
2022-11-15T03:16:46.478Z,3.40
2022-11-15T03:19:28.288Z,2.90
2022-11-15T03:21:57.116Z,3.42
2022-11-15T03:24:26.407Z,4.00
2022-11-15T03:26:56.012Z,3.15
2022-11-15T03:29:27.220Z,3.25
2022-11-15T03:32:00.817Z,3.17
2022-11-15T03:34:42.722Z,4.03
2022-11-15T03:37:11.797Z,3.83
2022-11-15T03:39:38.478Z,3.38
2022-11-15T03:42:28.266Z,3.47
2022-11-15T03:45:09.482Z,3.38
2022-11-15T03:47:41.557Z,2.72
2022-11-15T03:50:19.576Z,2.90
2022-11-15T03:52:48.697Z,3.33
2022-11-15T03:55:20.540Z,3.20
2022-11-15T03:57:50.538Z,3.50
2022-11-15T04:00:17.685Z,3.35
2022-11-15T04:02:44.278Z,3.08
2022-11-15T04:05:10.933Z,3.80
2022-11-15T04:07:37.574Z,3.75
2022-11-15T04:10:06.264Z,3.88
2022-11-15T04:12:34.700Z,4.18
2022-11-15T04:15:12.383Z,3.60
2022-11-15T04:17:38.891Z,3.28
2022-11-15T04:20:27.009Z,3.50
2022-11-15T04:23:13.305Z,2.70
2022-11-15T04:25:40.606Z,3.00
2022-11-15T04:28:07.422Z,3.03
2022-11-15T04:30:34.055Z,3.00
2022-11-15T04:33:00.758Z,3.20
2022-11-15T04:35:27.822Z,3.42
2022-11-15T04:37:55.166Z,3.50
2022-11-15T04:40:21.851Z,3.40
2022-11-15T04:42:48.461Z,3.60
2022-11-15T04:45:15.160Z,3.58
2022-11-15T04:47:44.966Z,3.45
2022-11-15T04:50:14.374Z,3.10
2022-11-15T04:52:43.236Z,3.55
2022-11-15T04:55:11.623Z,3.90
2022-11-15T04:57:38.878Z,3.67
2022-11-15T05:00:08.105Z,3.20
2022-11-15T05:02:53.329Z,3.00
2022-11-15T05:05:20.101Z,3.00
2022-11-15T05:07:46.667Z,3.38
2022-11-15T05:10:13.266Z,3.05
2022-11-15T05:12:39.851Z,3.25
2022-11-15T05:15:07.036Z,3.50
2022-11-15T05:17:33.670Z,3.75
2022-11-15T05:20:00.289Z,3.20
2022-11-15T05:22:26.984Z,3.72
2022-11-15T05:24:53.604Z,3.95
2022-11-15T05:27:20.298Z,4.05
2022-11-15T05:29:46.943Z,3.17
2022-11-15T05:32:14.265Z,3.40
2022-11-15T05:34:40.911Z,4.28
2022-11-15T05:37:07.920Z,4.35
2022-11-15T05:39:34.524Z,3.58
2022-11-15T05:42:10.541Z,3.67
2022-11-15T05:44:39.290Z,3.72
2022-11-15T05:47:09.951Z,4.07
2022-11-15T05:49:40.446Z,4.18
2022-11-15T05:52:10.524Z,3.60
2022-11-15T05:54:38.296Z,5.00
2022-11-15T05:57:05.985Z,4.45
2022-11-15T05:59:34.457Z,4.22
2022-11-15T06:02:01.295Z,4.15
2022-11-15T06:04:28.285Z,3.60
2022-11-15T06:06:54.873Z,3.47
2022-11-15T06:09:21.486Z,4.13
2022-11-15T06:11:48.862Z,3.72
2022-11-15T06:14:15.411Z,4.72
2022-11-15T06:16:42.122Z,4.88
2022-11-15T06:19:08.920Z,4.22
2022-11-15T06:21:35.607Z,4.32
2022-11-15T06:24:02.390Z,4.15
2022-11-15T06:26:29.066Z,5.13
2022-11-15T06:28:55.653Z,4.57
2022-11-15T06:31:22.247Z,4.53
2022-11-15T06:33:50.526Z,3.88
2022-11-15T06:36:18.351Z,3.65
2022-11-15T06:38:46.013Z,4.18
2022-11-15T06:41:13.917Z,4.43
2022-11-15T06:43:41.236Z,4.13
2022-11-15T06:46:08.477Z,4.13
2022-11-15T06:48:35.948Z,3.72
2022-11-15T06:51:04.231Z,3.72
2022-11-15T06:53:31.665Z,4.85
2022-11-15T06:56:03.372Z,4.78
2022-11-15T06:58:30.086Z,4.10
2022-11-15T07:01:08.627Z,4.22
2022-11-15T07:03:37.005Z,4.03
2022-11-15T07:06:07.389Z,4.15
2022-11-15T07:08:35.171Z,4.68
2022-11-15T07:11:03.942Z,4.90
2022-11-15T07:13:35.887Z,4.22
2022-11-15T07:16:08.145Z,4.57
2022-11-15T07:18:36.547Z,5.32
2022-11-15T07:21:09.268Z,4.97
2022-11-15T07:23:39.824Z,5.28
2022-11-15T07:26:07.416Z,4.82
2022-11-15T07:28:34.283Z,4.47
2022-11-15T07:31:05.510Z,4.35
2022-11-15T07:33:32.851Z,4.28
2022-11-15T07:36:02.606Z,5.78
2022-11-15T07:38:29.966Z,7.97
2022-11-15T07:41:01.658Z,12.68
2022-11-15T07:43:33.916Z,10.73
2022-11-15T07:46:06.324Z,23.00
2022-11-15T07:48:43.373Z,14.02
2022-11-15T07:51:16.311Z,9.60
2022-11-15T07:53:44.093Z,6.10
2022-11-15T07:56:11.281Z,6.60
2022-11-15T07:58:37.974Z,7.78
2022-11-15T08:01:09.847Z,8.50
2022-11-15T08:03:37.142Z,8.07
2022-11-15T08:06:04.307Z,8.32
2022-11-15T08:08:30.993Z,9.10
2022-11-15T08:11:01.306Z,8.10
2022-11-15T08:13:28.610Z,9.18
2022-11-15T08:16:01.898Z,9.68
2022-11-15T08:18:28.624Z,9.93
2022-11-15T08:20:59.709Z,9.95
2022-11-15T08:23:26.314Z,11.88
2022-11-15T08:25:52.972Z,12.60
2022-11-15T08:28:19.534Z,19.13
2022-11-15T08:30:46.654Z,18.88
2022-11-15T08:33:15.000Z,20.80
2022-11-15T08:35:42.472Z,21.95
2022-11-15T08:38:09.229Z,19.52
2022-11-15T08:40:36.448Z,17.48
2022-11-15T08:43:03.698Z,17.40
2022-11-15T08:45:35.676Z,16.58
2022-11-15T08:48:04.330Z,17.77
2022-11-15T08:50:30.976Z,17.23
2022-11-15T08:52:57.614Z,16.20
2022-11-15T08:55:24.955Z,14.70
2022-11-15T08:57:52.021Z,15.10
2022-11-15T09:00:20.981Z,14.27
2022-11-15T09:02:47.954Z,13.77
2022-11-15T09:05:16.166Z,15.07
2022-11-15T09:07:42.770Z,14.68
2022-11-15T09:10:09.791Z,13.48
2022-11-15T09:12:36.479Z,14.30
2022-11-15T09:15:03.933Z,13.68
2022-11-15T09:17:30.485Z,13.73
2022-11-15T09:19:57.128Z,13.25
2022-11-15T09:22:23.793Z,14.68
2022-11-15T09:24:50.390Z,15.32
2022-11-15T09:27:16.968Z,16.50
2022-11-15T09:29:43.617Z,16.80
2022-11-15T09:32:10.329Z,15.85
2022-11-15T09:34:36.910Z,16.13
2022-11-15T09:37:03.486Z,13.38
2022-11-15T09:39:30.119Z,13.82
2022-11-15T09:42:26.490Z,16.63
2022-11-15T09:45:13.352Z,14.85
2022-11-15T09:48:00.112Z,15.05
2022-11-15T09:50:47.933Z,16.08
2022-11-15T09:53:41.494Z,15.02
2022-11-15T09:58:59.314Z,14.40
2022-11-15T10:01:50.531Z,15.15
2022-11-15T10:04:17.990Z,15.65
2022-11-15T10:07:10.756Z,14.85
2022-11-15T10:09:50.446Z,13.48
2022-11-15T10:12:18.443Z,14.68
2022-11-15T10:14:51.612Z,13.80
2022-11-15T10:17:26.729Z,15.27
2022-11-15T10:20:15.083Z,13.93
2022-11-15T10:22:50.601Z,15.70
2022-11-15T10:25:27.238Z,15.23
2022-11-15T10:28:00.910Z,15.18
2022-11-15T10:30:38.471Z,13.68
2022-11-15T10:33:18.518Z,14.75
2022-11-15T10:35:45.167Z,13.13
2022-11-15T10:38:13.188Z,13.38
2022-11-15T10:40:41.685Z,12.98
2022-11-15T10:43:11.044Z,13.05
2022-11-15T10:45:39.272Z,13.23
2022-11-15T10:48:14.694Z,11.55
2022-11-15T10:50:46.466Z,10.98
2022-11-15T10:53:32.296Z,11.45
2022-11-15T10:56:09.322Z,10.68
2022-11-15T10:58:42.448Z,11.13
2022-11-15T11:01:19.264Z,11.18
2022-11-15T11:03:59.737Z,10.95
2022-11-15T11:06:27.178Z,10.40
2022-11-15T11:08:58.522Z,9.43
2022-11-15T11:11:26.618Z,9.40
2022-11-15T11:13:53.668Z,10.48
2022-11-15T11:16:33.847Z,9.38
2022-11-15T11:19:44.829Z,9.10
2022-11-15T11:22:46.886Z,10.45
2022-11-15T11:25:19.319Z,9.40
2022-11-15T11:27:57.886Z,9.55
2022-11-15T11:30:55.192Z,10.20
2022-11-15T11:33:43.065Z,10.02
2022-11-15T11:36:15.533Z,9.85
2022-11-15T11:38:55.886Z,9.57
2022-11-15T11:41:37.921Z,9.02
2022-11-15T11:44:16.299Z,9.02
2022-11-15T11:46:50.653Z,9.02
2022-11-15T11:49:24.219Z,8.73
2022-11-15T11:52:08.957Z,10.75
2022-11-15T11:55:01.884Z,9.98
2022-11-15T11:57:48.305Z,9.68
2022-11-15T12:00:23.497Z,10.13
2022-11-15T12:03:13.299Z,10.55
2022-11-15T12:05:54.935Z,11.00
2022-11-15T12:08:59.096Z,11.32
2022-11-15T12:11:37.125Z,18.63
2022-11-15T12:14:25.519Z,16.45
2022-11-15T12:16:52.238Z,15.35
2022-11-15T12:19:18.836Z,13.88
2022-11-15T12:21:49.534Z,12.43
2022-11-15T12:24:23.413Z,10.70
2022-11-15T12:26:56.782Z,11.65
2022-11-15T12:29:23.319Z,10.98
2022-11-15T12:32:01.065Z,11.38
2022-11-15T12:34:49.873Z,11.05
2022-11-15T12:37:41.691Z,10.50
2022-11-15T12:40:20.505Z,10.27
2022-11-15T12:43:02.298Z,11.07
2022-11-15T12:45:37.768Z,11.13
2022-11-15T12:48:16.597Z,10.88
2022-11-15T12:50:52.722Z,10.65
2022-11-15T12:53:29.561Z,10.20
2022-11-15T12:56:16.047Z,11.77
2022-11-15T12:58:43.510Z,12.25
2022-11-15T13:01:11.625Z,11.43
2022-11-15T13:04:17.014Z,11.68
2022-11-15T13:06:48.532Z,12.52
2022-11-15T13:09:30.148Z,13.23
2022-11-15T13:11:58.456Z,12.52
2022-11-15T13:14:47.058Z,12.23
2022-11-15T13:17:19.721Z,11.80
2022-11-15T13:19:58.369Z,10.73
2022-11-15T13:22:43.497Z,10.15
2022-11-15T13:25:20.162Z,12.35
2022-11-15T13:27:49.625Z,14.50
2022-11-15T13:30:22.408Z,12.75
2022-11-15T13:32:49.864Z,12.55
2022-11-15T13:35:41.215Z,11.23
2022-11-15T13:38:37.145Z,11.63
2022-11-15T13:41:34.586Z,10.52
2022-11-15T13:44:02.423Z,13.55
2022-11-15T13:46:34.068Z,20.17
2022-11-15T13:49:01.986Z,19.60
2022-11-15T13:51:34.566Z,14.65
2022-11-15T13:54:04.345Z,19.95
2022-11-15T13:56:35.042Z,18.23
2022-11-15T13:59:10.241Z,19.85
2022-11-15T14:01:37.486Z,23.05
2022-11-15T14:04:04.349Z,20.88
2022-11-15T14:06:32.439Z,23.35
2022-11-15T14:09:10.029Z,23.90
2022-11-15T14:11:36.893Z,24.13
2022-11-15T14:14:06.266Z,23.70
2022-11-15T14:16:38.426Z,23.42
2022-11-15T14:19:06.709Z,21.67
2022-11-15T14:21:33.720Z,23.77
2022-11-15T14:24:22.046Z,23.83
2022-11-15T14:26:49.561Z,22.77
2022-11-15T14:29:30.030Z,22.42
2022-11-15T14:32:22.831Z,23.67
2022-11-15T14:34:54.639Z,24.52
2022-11-15T14:37:38.402Z,24.42
2022-11-15T14:40:06.911Z,25.20
2022-11-15T14:42:33.515Z,25.42
2022-11-15T14:45:00.165Z,25.55
2022-11-15T14:47:26.788Z,25.40
2022-11-15T14:49:53.401Z,27.05
2022-11-15T14:52:33.020Z,25.60
2022-11-15T14:55:02.264Z,26.95
2022-11-15T14:57:29.942Z,26.15
2022-11-15T14:59:56.651Z,28.30
2022-11-15T15:02:27.946Z,28.60
2022-11-15T15:04:55.446Z,28.17
2022-11-15T15:07:23.213Z,28.73
2022-11-15T15:09:49.902Z,28.27
2022-11-15T15:12:22.053Z,26.90
2022-11-15T15:14:50.821Z,27.48
2022-11-15T15:17:18.485Z,27.88
2022-11-15T15:19:45.291Z,24.80
2022-11-15T15:22:19.884Z,25.30
2022-11-15T15:24:47.225Z,24.65
2022-11-15T15:27:14.051Z,24.48
2022-11-15T15:29:41.046Z,25.95
2022-11-15T15:32:07.995Z,24.65
2022-11-15T15:34:35.052Z,22.65
2022-11-15T15:37:26.946Z,23.60
2022-11-15T15:39:55.338Z,22.83
2022-11-15T15:42:22.924Z,23.35
2022-11-15T15:44:50.920Z,23.25
2022-11-15T15:47:20.858Z,24.35
2022-11-15T15:49:48.352Z,22.23
2022-11-15T15:52:15.033Z,28.23
2022-11-15T15:54:42.190Z,24.00
2022-11-15T15:57:11.973Z,22.30
2022-11-15T15:59:38.560Z,21.60
2022-11-15T16:02:05.555Z,21.15
2022-11-15T16:04:32.165Z,21.88
2022-11-15T16:07:03.450Z,21.77
2022-11-15T16:09:48.466Z,22.35
2022-11-15T16:12:17.257Z,19.58
2022-11-15T16:14:44.076Z,26.02
2022-11-15T16:17:18.408Z,23.02
2022-11-15T16:19:45.049Z,21.80
2022-11-15T16:22:11.695Z,23.55
2022-11-15T16:24:38.420Z,21.13
2022-11-15T16:27:05.262Z,20.65
2022-11-15T16:29:31.881Z,20.50
2022-11-15T16:31:58.444Z,19.88
2022-11-15T16:34:29.985Z,19.98
2022-11-15T16:36:57.744Z,20.40
2022-11-15T16:39:24.352Z,22.30
2022-11-15T16:41:50.939Z,20.85
2022-11-15T16:44:17.627Z,20.52
2022-11-15T16:46:45.932Z,20.52
2022-11-15T16:49:15.223Z,22.63
2022-11-15T16:51:42.690Z,18.92
2022-11-15T16:54:09.269Z,21.27
2022-11-15T16:56:35.888Z,19.40
2022-11-15T16:59:02.622Z,20.73
2022-11-15T17:01:32.832Z,18.80
2022-11-15T17:04:00.134Z,19.92
2022-11-15T17:06:27.018Z,19.58
2022-11-15T17:08:54.525Z,19.88
2022-11-15T17:11:22.704Z,19.23
2022-11-15T17:13:49.696Z,19.73
2022-11-15T17:16:18.349Z,18.88
2022-11-15T17:18:45.784Z,17.60
2022-11-15T17:21:18.417Z,19.25
2022-11-15T17:23:45.740Z,18.42
2022-11-15T17:26:32.969Z,19.05
2022-11-15T17:29:01.695Z,20.02
2022-11-15T17:31:30.836Z,18.08
2022-11-15T17:33:57.566Z,21.65
2022-11-15T17:36:24.140Z,17.35
2022-11-15T17:38:57.947Z,17.90
2022-11-15T17:41:27.058Z,20.98
2022-11-15T17:43:53.927Z,18.67
2022-11-15T17:46:21.419Z,17.48
2022-11-15T17:48:48.937Z,16.90
2022-11-15T17:51:17.889Z,17.83
2022-11-15T17:53:46.704Z,15.65
2022-11-15T17:56:18.915Z,18.33
2022-11-15T17:58:49.638Z,13.38
2022-11-15T18:01:27.619Z,13.77
2022-11-15T18:03:55.694Z,12.45
2022-11-15T18:06:24.010Z,12.52
2022-11-15T18:08:52.218Z,12.52
2022-11-15T18:11:24.450Z,15.20
2022-11-15T18:13:53.650Z,13.90
2022-11-15T18:16:22.665Z,16.30
2022-11-15T18:18:49.256Z,14.82
2022-11-15T18:21:18.821Z,15.18
2022-11-15T18:23:46.930Z,15.82
2022-11-15T18:26:15.393Z,15.65
2022-11-15T18:28:44.599Z,17.58
2022-11-15T18:31:19.661Z,15.43
2022-11-15T18:33:46.289Z,14.30
2022-11-15T18:36:18.592Z,13.15
2022-11-15T18:38:45.351Z,11.00
2022-11-15T18:41:20.791Z,9.18
2022-11-15T18:43:51.383Z,12.93
2022-11-15T18:46:23.703Z,13.48
2022-11-15T18:48:51.435Z,15.20
2022-11-15T18:51:20.781Z,13.45
2022-11-15T18:53:48.252Z,13.98
2022-11-15T18:56:18.671Z,14.60
2022-11-15T18:58:50.601Z,14.05
2022-11-15T19:01:22.528Z,13.90
2022-11-15T19:03:51.382Z,12.50
2022-11-15T19:06:22.074Z,12.32
2022-11-15T19:08:54.770Z,12.07
2022-11-15T19:11:25.522Z,12.40
2022-11-15T19:13:57.039Z,14.10
2022-11-15T19:16:24.388Z,14.60
2022-11-15T19:18:58.925Z,12.40
2022-11-15T19:21:27.000Z,12.75
2022-11-15T19:23:54.329Z,14.07
2022-11-15T19:26:22.722Z,11.82
2022-11-15T19:29:02.799Z,13.93
2022-11-15T19:31:31.468Z,12.18
2022-11-15T19:34:04.566Z,12.60
2022-11-15T19:36:34.356Z,12.05
2022-11-15T19:39:05.646Z,11.73
2022-11-15T19:41:32.439Z,11.57
2022-11-15T19:43:59.149Z,12.20
2022-11-15T19:46:26.954Z,11.68
2022-11-15T19:48:54.174Z,11.02
2022-11-15T19:51:25.074Z,9.73
2022-11-15T19:54:01.430Z,8.98
2022-11-15T19:56:28.104Z,7.80
2022-11-15T19:58:56.054Z,8.10
2022-11-15T20:01:25.658Z,8.00
2022-11-15T20:03:54.723Z,7.43
2022-11-15T20:06:24.562Z,7.63
2022-11-15T20:08:51.590Z,7.47
2022-11-15T20:11:19.184Z,7.45
2022-11-15T20:13:46.332Z,5.78
2022-11-15T20:16:18.831Z,6.80
2022-11-15T20:18:45.667Z,7.78
2022-11-15T20:21:12.362Z,6.03
2022-11-15T20:23:39.330Z,6.78
2022-11-15T20:26:07.279Z,6.15
2022-11-15T20:28:36.709Z,6.55
2022-11-15T20:31:03.842Z,7.05
2022-11-15T20:33:30.598Z,9.38
2022-11-15T20:35:57.219Z,9.23
2022-11-15T20:38:23.961Z,8.88
2022-11-15T20:40:56.059Z,8.30
2022-11-15T20:43:25.694Z,8.38
2022-11-15T20:45:52.354Z,9.20
2022-11-15T20:48:19.054Z,8.88
2022-11-15T20:50:47.080Z,8.95
2022-11-15T20:53:18.271Z,9.02
2022-11-15T20:55:47.988Z,8.95
2022-11-15T20:58:15.709Z,8.65
2022-11-15T21:00:44.767Z,8.45
2022-11-15T21:03:14.313Z,9.82
2022-11-15T21:05:42.971Z,9.07
2022-11-15T21:08:11.006Z,9.60
2022-11-15T21:10:56.500Z,9.13
2022-11-15T21:13:23.138Z,13.05
2022-11-15T21:15:49.769Z,11.90
2022-11-15T21:18:16.625Z,10.93
2022-11-15T21:20:43.437Z,11.98
2022-11-15T21:23:11.648Z,11.70
2022-11-15T21:25:38.279Z,10.68
2022-11-15T21:28:05.122Z,9.82
2022-11-15T21:30:31.729Z,11.45
2022-11-15T21:32:58.367Z,10.43
2022-11-15T21:35:25.202Z,11.32
2022-11-15T21:37:56.396Z,10.45
2022-11-15T21:40:23.653Z,9.02
2022-11-15T21:42:50.300Z,7.72
2022-11-15T21:45:16.999Z,7.97
2022-11-15T21:47:46.474Z,7.43
2022-11-15T21:50:13.679Z,9.00
2022-11-15T21:52:40.884Z,8.18
2022-11-15T21:55:08.468Z,8.80
2022-11-15T21:57:35.107Z,8.50
2022-11-15T22:00:20.381Z,8.63
2022-11-15T22:02:47.025Z,8.52
2022-11-15T22:05:13.680Z,7.38
2022-11-15T22:07:40.450Z,8.48
2022-11-15T22:10:08.658Z,7.68
2022-11-15T22:12:35.252Z,8.25
2022-11-15T22:15:01.820Z,7.85
2022-11-15T22:17:48.399Z,8.20
2022-11-15T22:23:02.584Z,8.73
2022-11-15T22:25:29.743Z,7.82
2022-11-15T22:27:56.394Z,7.78
2022-11-15T22:30:24.295Z,7.80
2022-11-15T22:32:50.961Z,7.22
2022-11-15T22:35:17.808Z,7.57
2022-11-15T22:37:44.868Z,6.80
2022-11-15T22:40:11.594Z,6.90
2022-11-15T22:42:38.194Z,7.55
2022-11-15T22:45:05.218Z,8.25
2022-11-15T22:47:31.878Z,7.57
2022-11-15T22:49:58.611Z,7.93
2022-11-15T22:52:25.221Z,7.35
2022-11-15T22:54:51.891Z,7.35
2022-11-15T22:57:18.510Z,7.13
2022-11-15T22:59:45.200Z,7.22
2022-11-15T23:02:11.854Z,7.25
2022-11-15T23:04:38.495Z,7.03
2022-11-15T23:07:05.252Z,6.40
2022-11-15T23:09:31.923Z,5.95
2022-11-15T23:12:17.343Z,5.05
2022-11-15T23:14:44.010Z,5.85
2022-11-15T23:17:10.641Z,5.80
2022-11-15T23:19:37.317Z,5.50
2022-11-15T23:22:22.481Z,5.43
2022-11-15T23:24:49.226Z,5.97
2022-11-15T23:27:19.960Z,6.47
2022-11-15T23:30:05.786Z,5.85
2022-11-15T23:32:51.211Z,5.47
2022-11-15T23:35:17.893Z,5.30
2022-11-15T23:37:44.561Z,5.93
2022-11-15T23:40:11.976Z,5.47
2022-11-15T23:42:38.647Z,5.28
2022-11-15T23:45:06.200Z,5.40
2022-11-15T23:47:32.844Z,5.70
2022-11-15T23:49:59.492Z,5.25
2022-11-15T23:52:26.142Z,5.30
2022-11-15T23:54:52.868Z,5.30
2022-11-15T23:57:19.725Z,4.80
2022-11-15T23:59:46.357Z,5.53
